Time;durP1;ratioP1;P1;durP2;ratioP2;P2;SDS_P1;SDS_P2;PMS_P1;PMS_P2;Temp;Humidity;BMP_temperature;BMP_pressure;BME280_temperature;BME280_humidity;BME280_pressure;Samples;Min_cycle;Max_cycle;Signal;HPM_P1;HPM_P2
2022/09/20 00:00:48;;;;;;;6.45;3.35;;;;;;;7.11;100.00;162423.88;4993553;28;20464;-65
2022/09/20 00:03:15;;;;;;;5.63;4.03;;;;;;;7.07;100.00;162413.06;4994652;28;20037;-65
2022/09/20 00:05:42;;;;;;;19.65;7.43;;;;;;;7.13;100.00;162429.22;4993138;28;20043;-65
2022/09/20 00:08:12;;;;;;;16.25;4.88;;;;;;;7.14;100.00;162431.94;4995065;28;20433;-67
2022/09/20 00:10:38;;;;;;;13.07;4.78;;;;;;;7.17;100.00;162440.03;4993078;28;20069;-66
2022/09/20 00:13:06;;;;;;;22.90;5.93;;;;;;;7.15;100.00;162434.63;4994761;28;20026;-66
2022/09/20 00:15:32;;;;;;;17.60;4.03;;;;;;;7.23;100.00;162456.19;4993331;28;20145;-67
2022/09/20 00:17:57;;;;;;;8.77;3.50;;;;;;;7.22;100.00;162453.47;4994539;28;20030;-67
2022/09/20 00:20:24;;;;;;;7.93;2.83;;;;;;;7.21;100.00;162450.78;4992795;28;20034;-67
2022/09/20 00:22:49;;;;;;;15.48;5.15;;;;;;;7.21;100.00;162450.78;4994763;28;20117;-67
2022/09/20 00:25:16;;;;;;;7.68;3.60;;;;;;;-146.58;100.00;69501.63;4992587;28;20165;-67
2022/09/20 00:27:42;;;;;;;8.68;4.20;;;;;;;7.20;100.00;162448.06;4994509;28;20066;-67
2022/09/20 00:30:08;;;;;;;10.93;3.88;;;;;;;7.21;100.00;162450.78;4992742;28;20066;-67
2022/09/20 00:32:33;;;;;;;15.38;4.68;;;;;;;7.23;100.00;162454.81;4993929;28;20581;-69
2022/09/20 00:35:09;;;;;;;12.30;4.25;;;;;;;7.25;100.00;162461.59;4992501;28;20046;-68
2022/09/20 00:37:37;;;;;;;12.20;4.38;;;;;;;7.31;100.00;162476.38;4994637;28;20034;-67
2022/09/20 00:40:04;;;;;;;11.32;3.85;;;;;;;7.32;100.00;162477.75;4992316;28;20100;-67
2022/09/20 00:42:30;;;;;;;12.27;3.50;;;;;;;7.30;100.00;162475.03;4994258;28;20113;-67
2022/09/20 00:45:05;;;;;;;11.20;4.50;;;;;;;7.27;100.00;162466.94;4992790;28;20042;-67
2022/09/20 00:47:37;;;;;;;13.30;4.03;;;;;;;7.28;100.00;162469.63;4993497;28;20057;-66
2022/09/20 00:50:27;;;;;;;14.23;3.80;;;;;;;7.23;100.00;162454.81;4992429;28;20506;-66
2022/09/20 00:52:59;;;;;;;7.55;4.60;;;;;;;7.17;100.00;162440.03;4994024;28;20049;-68
2022/09/20 00:55:25;;;;;;;9.27;3.92;;;;;;;7.15;100.00;162434.63;4992043;28;20042;-67
2022/09/20 00:57:52;;;;;;;7.22;3.33;;;;;;;7.13;100.00;162429.22;4992864;28;20515;-66
2022/09/20 01:00:18;;;;;;;12.18;4.00;;;;;;;7.08;100.00;162415.78;4992322;28;20108;-66
2022/09/20 01:02:50;;;;;;;11.13;3.38;;;;;;;7.04;100.00;162404.97;4993472;28;20057;-66
2022/09/20 01:05:17;;;;;;;10.00;4.47;;;;;;;7.03;100.00;162402.31;4992186;28;20049;-66
2022/09/20 01:07:46;;;;;;;23.38;5.30;;;;;;;6.99;100.00;162394.22;4993730;28;20120;-66
2022/09/20 01:10:12;;;;;;;7.88;3.15;;;;;;;6.93;100.00;162378.06;4991797;28;20078;-67
2022/09/20 01:12:39;;;;;;;9.27;3.45;;;;;;;6.94;100.00;162380.78;4993698;28;20026;-67
2022/09/20 01:15:07;;;;;;;11.55;3.90;;;;;;;6.91;100.00;162372.66;4991804;28;20049;-66
2022/09/20 01:17:36;;;;;;;11.83;5.43;;;;;;;6.88;100.00;162364.63;4993295;28;20034;-70
2022/09/20 01:20:10;;;;;;;12.32;4.75;;;;;;;6.85;100.00;162355.19;4991913;28;20469;-69
2022/09/20 01:23:03;;;;;;;10.70;4.68;;;;;;;6.84;100.00;162353.81;4993691;28;20133;-69
2022/09/20 01:25:44;;;;;;;17.33;6.93;;;;;;;6.85;100.00;162355.19;4992039;28;20042;-69
2022/09/20 01:28:09;;;;;;;5.53;3.40;;;;;;;6.82;100.00;162348.41;4993612;28;20026;-69
2022/09/20 01:30:42;;;;;;;10.70;5.63;;;;;;;6.81;100.00;162347.09;4991381;28;20049;-69
2022/09/20 01:33:08;;;;;;;17.63;4.97;;;;;;;6.81;100.00;162345.78;4993298;28;20037;-66
2022/09/20 01:35:35;;;;;;;18.95;6.03;;;;;;;6.81;100.00;162347.09;4991530;28;20133;-68
2022/09/20 01:38:31;;;;;;;12.57;5.07;;;;;;;6.81;100.00;162345.78;4992844;28;20382;-67
2022/09/20 01:41:09;;;;;;;24.00;5.47;;;;;;;6.79;100.00;162340.38;4991600;28;20520;-66
2022/09/20 01:43:38;;;;;;;21.77;6.45;;;;;;;6.78;100.00;162337.66;4992119;28;20118;-65
2022/09/20 01:46:17;;;;;;;17.17;5.25;;;;;;;6.76;100.00;162332.28;4992288;28;20030;-65
2022/09/20 01:48:42;;;;;;;7.82;5.03;;;;;;;6.77;100.00;162334.97;4992045;28;20482;-65
2022/09/20 01:51:35;;;;;;;7.78;4.47;;;;;;;6.75;100.00;162329.56;4992582;28;20068;-66
2022/09/20 01:54:51;;;;;;;9.88;4.30;;;;;;;6.73;100.00;162324.22;4990898;28;20034;-68
2022/09/20 01:57:53;;;;;;;18.95;5.00;;;;;;;6.69;100.00;162313.44;4988677;28;20042;-69
2022/09/20 02:00:29;;;;;;;7.95;4.22;;;;;;;6.65;100.00;162305.38;4990472;28;20852;-69
2022/09/20 02:03:30;;;;;;;10.20;5.35;;;;;;;-146.58;100.00;69501.63;4992640;28;20092;-67
2022/09/20 02:06:28;;;;;;;7.80;4.53;;;;;;;-146.58;100.00;69501.63;4991404;28;20057;-66
2022/09/20 02:08:54;;;;;;;;;;;;;;;-146.58;100.00;69501.63;4991239;28;20588;-67
2022/09/20 02:11:45;;;;;;;11.00;4.85;;;;;;;-146.58;100.00;69501.63;4992429;28;19914;-67
2022/09/20 02:14:26;;;;;;;10.60;4.63;;;;;;;-146.58;100.00;69501.63;4990632;28;20058;-67
2022/09/20 02:17:01;;;;;;;8.50;4.32;;;;;;;-146.58;100.00;69501.63;4992365;28;20026;-67
2022/09/20 02:19:26;;;;;;;7.65;5.07;;;;;;;-146.58;100.00;69501.63;4991208;28;20042;-67
2022/09/20 02:22:30;;;;;;;11.63;4.22;;;;;;;-146.58;100.00;69501.63;4992084;28;20129;-67
2022/09/20 02:25:07;;;;;;;15.73;6.10;;;;;;;-146.58;100.00;69501.63;4990918;28;20066;-67
2022/09/20 02:28:00;;;;;;;14.10;4.55;;;;;;;-146.58;100.00;69501.63;4992298;28;20108;-67
2022/09/20 02:30:37;;;;;;;10.75;4.82;;;;;;;-146.58;100.00;69501.63;4990360;28;20054;-67
2022/09/20 02:33:21;;;;;;;12.52;5.28;;;;;;;-146.58;100.00;69501.63;4992027;28;20495;-64
2022/09/20 02:36:07;;;;;;;14.25;5.20;;;;;;;-146.58;100.00;69501.63;4990744;28;20130;-64
2022/09/20 02:39:14;;;;;;;9.18;5.45;;;;;;;-146.58;100.00;69501.63;4990768;28;20483;-63
2022/09/20 02:41:45;;;;;;;12.43;4.63;;;;;;;-146.58;100.00;69501.63;4991988;28;20034;-65
2022/09/20 02:44:41;;;;;;;10.00;4.72;;;;;;;-146.58;100.00;69501.63;4989719;28;20045;-64
2022/09/20 02:47:33;;;;;;;7.47;4.55;;;;;;;-146.58;100.00;69501.63;4991869;28;20027;-64
2022/09/20 02:50:33;;;;;;;8.23;5.38;;;;;;;-146.58;100.00;69501.63;4990424;28;20042;-64
2022/09/20 02:53:04;;;;;;;15.27;5.40;;;;;;;-146.58;100.00;69501.63;4959458;28;20050;-65
2022/09/20 02:55:40;;;;;;;15.00;5.43;;;;;;;-146.58;100.00;69501.63;4990607;28;20513;-65
2022/09/20 02:58:30;;;;;;;7.55;3.65;;;;;;;-146.58;100.00;69501.63;4991493;28;20026;-65
2022/09/20 03:01:23;;;;;;;7.65;3.83;;;;;;;-146.58;100.00;69501.63;4990172;28;20038;-65
2022/09/20 03:04:07;;;;;;;15.95;5.72;;;;;;;-146.58;100.00;69501.63;4990559;28;20050;-64
2022/09/20 03:06:47;;;;;;;7.15;4.43;;;;;;;-146.58;100.00;69501.63;4991453;28;20038;-66
2022/09/20 03:09:38;;;;;;;11.60;7.28;;;;;;;-146.58;100.00;69501.63;4990296;28;20064;-68
2022/09/20 03:12:35;;;;;;;10.38;4.30;;;;;;;-146.58;100.00;69501.63;4991461;28;20029;-67
2022/09/20 03:15:07;;;;;;;8.90;3.67;;;;;;;-146.58;100.00;69501.63;4990032;28;20046;-65
2022/09/20 03:17:35;;;;;;;6.57;5.82;;;;;;;-146.58;100.00;69501.63;4991952;28;20042;-66
2022/09/20 03:20:18;;;;;;;10.48;5.63;;;;;;;-146.58;100.00;69501.63;4989901;28;20498;-65
2022/09/20 03:23:08;;;;;;;12.35;5.75;;;;;;;-146.58;100.00;69501.63;4995615;28;20027;-66
2022/09/20 03:25:51;;;;;;;20.65;7.60;;;;;;;-146.58;100.00;69501.63;4994242;28;20042;-65
2022/09/20 03:28:31;;;;;;;11.25;4.60;;;;;;;-146.58;100.00;69501.63;4995822;28;20033;-65
2022/09/20 03:31:06;;;;;;;15.35;5.28;;;;;;;-146.58;100.00;69501.63;4993886;28;20050;-65
2022/09/20 03:33:51;;;;;;;22.77;7.70;;;;;;;-146.58;100.00;69501.63;4994277;28;20417;-66
2022/09/20 03:36:44;;;;;;;12.70;6.13;;;;;;;-146.58;100.00;69501.63;4995033;28;20022;-66
2022/09/20 03:39:39;;;;;;;15.65;5.35;;;;;;;-146.58;100.00;69501.63;4993953;28;20034;-65
2022/09/20 03:42:15;;;;;;;8.90;5.32;;;;;;;-146.58;100.00;69501.63;4994919;28;20121;-65
2022/09/20 03:44:57;;;;;;;8.55;4.78;;;;;;;-146.58;100.00;69501.63;4993823;28;20038;-65
2022/09/20 03:47:59;;;;;;;11.40;4.95;;;;;;;-146.58;100.00;69501.63;4995312;28;20536;-65
2022/09/20 03:50:46;;;;;;;8.68;5.28;;;;;;;-146.58;100.00;69501.63;4993878;28;20062;-65
2022/09/20 03:53:27;;;;;;;18.08;5.40;;;;;;;-146.58;100.00;69501.63;4995120;28;20040;-67
2022/09/20 03:56:19;;;;;;;13.77;5.90;;;;;;;-146.58;100.00;69501.63;4993661;28;20058;-66
2022/09/20 03:59:15;;;;;;;16.48;5.40;;;;;;;-146.58;100.00;69501.63;4993668;28;20026;-66
2022/09/20 04:02:08;;;;;;;11.82;6.00;;;;;;;-146.58;100.00;69501.63;4995008;28;20045;-66
2022/09/20 04:04:52;;;;;;;10.90;4.65;;;;;;;-146.58;100.00;69501.63;4993892;28;20443;-66
2022/09/20 04:07:22;;;;;;;15.65;5.38;;;;;;;-146.58;100.00;69501.63;4994396;28;20054;-68
2022/09/20 04:09:59;;;;;;;11.48;4.88;;;;;;;-146.58;100.00;69501.63;4993303;28;20125;-66
2022/09/20 04:13:02;;;;;;;6.80;5.43;;;;;;;-146.58;100.00;69501.63;4994681;28;20081;-66
2022/09/20 04:15:45;;;;;;;14.35;6.10;;;;;;;-146.58;100.00;69501.63;4991454;28;21919;-66
2022/09/20 04:18:55;;;;;;;15.10;5.80;;;;;;;-146.58;100.00;69501.63;4994102;28;20508;-65
2022/09/20 04:21:47;;;;;;;11.60;5.47;;;;;;;-146.58;100.00;69501.63;4992339;28;20049;-65
2022/09/20 04:24:41;;;;;;;8.57;4.57;;;;;;;-146.58;100.00;69501.63;4992975;28;20034;-65
2022/09/20 04:27:17;;;;;;;15.57;6.47;;;;;;;-146.58;100.00;69501.63;4994670;28;20049;-65
2022/09/20 04:29:52;;;;;;;14.63;7.25;;;;;;;-146.58;100.00;69501.63;4992820;28;20038;-65
2022/09/20 04:32:31;;;;;;;19.17;6.57;;;;;;;-146.58;100.00;69501.63;4993747;28;20047;-65
2022/09/20 04:37:50;;;;;;;12.25;5.68;;;;;;;-146.58;100.00;69501.63;4994094;28;20125;-66
2022/09/20 04:40:51;;;;;;;19.60;6.78;;;;;;;-146.58;100.00;69501.63;4992480;28;20058;-65
2022/09/20 04:43:58;;;;;;;11.10;6.78;;;;;;;-146.58;100.00;69501.63;4993917;28;20022;-65
2022/09/20 04:46:34;;;;;;;14.23;6.13;;;;;;;-146.58;100.00;69501.63;4992260;28;20498;-66
2022/09/20 04:49:33;;;;;;;9.80;5.63;;;;;;;-146.58;100.00;69501.63;4992457;28;20529;-63
2022/09/20 04:52:26;;;;;;;;;;;;;;;-146.58;100.00;69501.63;4994173;28;20029;-62
2022/09/20 04:55:23;;;;;;;12.88;5.20;;;;;;;-146.58;100.00;69501.63;4992653;28;19936;-62
2022/09/20 04:58:10;;;;;;;10.23;5.22;;;;;;;-146.58;100.00;69501.63;4993858;28;20048;-62
2022/09/20 05:00:46;;;;;;;18.73;8.48;;;;;;;-146.58;100.00;69501.63;4992486;28;20383;-62
2022/09/20 05:03:41;;;;;;;10.48;5.38;;;;;;;-146.58;100.00;69501.63;4992497;28;20030;-62
2022/09/20 05:06:42;;;;;;;12.73;6.90;;;;;;;-146.58;100.00;69501.63;4992127;28;20065;-62
2022/09/20 05:09:22;;;;;;;9.20;4.97;;;;;;;-146.58;100.00;69501.63;4992421;28;20031;-62
2022/09/20 05:12:17;;;;;;;14.85;4.95;;;;;;;-146.58;100.00;69501.63;4993907;28;20105;-62
2022/09/20 05:14:52;;;;;;;7.60;5.10;;;;;;;-146.58;100.00;69501.63;4992228;28;20130;-62
2022/09/20 05:17:36;;;;;;;11.82;5.35;;;;;;;-146.58;100.00;69501.63;4993563;28;20027;-62
2022/09/20 05:20:39;;;;;;;8.90;6.40;;;;;;;-146.58;100.00;69501.63;4991644;28;20083;-62
2022/09/20 05:23:16;;;;;;;10.70;5.88;;;;;;;-146.58;100.00;69501.63;4993419;28;20070;-62
2022/09/20 05:26:07;;;;;;;11.70;6.40;;;;;;;-146.58;100.00;69501.63;4992053;28;20042;-63
2022/09/20 05:28:48;;;;;;;12.05;6.43;;;;;;;-146.58;100.00;69501.63;4992044;28;20049;-62
2022/09/20 05:31:29;;;;;;;11.32;4.57;;;;;;;8.02;100.00;162660.94;4993042;28;20561;-62
2022/09/20 05:34:13;;;;;;;13.02;6.15;;;;;;;8.07;100.00;162674.44;4992165;28;20449;-62
2022/09/20 05:36:51;;;;;;;13.20;5.53;;;;;;;8.08;100.00;162677.09;4992964;28;20026;-66
2022/09/20 05:39:45;;;;;;;8.53;5.33;;;;;;;8.14;100.00;162693.31;4992176;28;20042;-66
2022/09/20 05:42:27;;;;;;;23.05;7.10;;;;;;;8.20;100.00;162709.47;4976869;28;20030;-62
2022/09/20 05:45:22;;;;;;;12.27;5.65;;;;;;;8.24;100.00;162720.25;4971889;28;20065;-61
2022/09/20 05:48:06;;;;;;;7.72;5.40;;;;;;;8.28;100.00;162728.34;4973597;28;20038;-62
2022/09/20 05:50:58;;;;;;;14.00;5.07;;;;;;;8.33;100.00;162741.81;4971979;28;20035;-61
2022/09/20 05:53:46;;;;;;;13.07;5.03;;;;;;;8.43;100.00;162768.78;4972791;28;20030;-62
2022/09/20 05:56:33;;;;;;;13.07;6.07;;;;;;;8.48;100.00;162782.28;4972393;28;20070;-62
2022/09/20 05:59:23;;;;;;;8.10;5.93;;;;;;;8.56;100.00;162802.53;4971734;28;20039;-61
2022/09/20 06:02:12;;;;;;;11.23;5.55;;;;;;;8.66;100.00;162829.47;4973336;28;20035;-61
2022/09/20 06:04:41;;;;;;;14.57;6.10;;;;;;;8.74;100.00;162849.72;4971919;28;20050;-61
2022/09/20 06:07:17;;;;;;;11.95;6.50;;;;;;;8.83;100.00;162873.94;4973056;28;20490;-61
2022/09/20 06:10:12;;;;;;;19.27;8.20;;;;;;;8.95;100.00;162903.66;4971807;28;20043;-61
2022/09/20 06:13:10;;;;;;;13.60;6.65;;;;;;;9.01;100.00;162919.81;4973159;28;20030;-61
2022/09/20 06:15:44;;;;;;;11.77;6.22;;;;;;;9.07;100.00;162936.00;4971916;28;20047;-62
2022/09/20 06:18:32;;;;;;;11.13;5.68;;;;;;;9.16;100.00;162958.91;4972930;28;20089;-61
2022/09/20 06:21:22;;;;;;;11.85;5.70;;;;;;;9.23;100.00;162976.44;4971140;28;20058;-61
2022/09/20 06:23:47;;;;;;;14.70;5.88;;;;;;;9.31;100.00;162998.03;4971907;28;20042;-61
2022/09/20 06:26:18;;;;;;;8.32;5.85;;;;;;;9.40;100.00;163020.94;4972468;28;20023;-61
2022/09/20 06:28:50;;;;;;;13.93;7.93;;;;;;;9.46;100.00;163038.50;4971717;28;20073;-61
2022/09/20 06:31:17;;;;;;;11.77;5.25;;;;;;;9.62;100.00;163078.97;4972386;28;20146;-61
2022/09/20 06:33:54;;;;;;;15.43;6.00;;;;;;;9.75;100.00;163112.72;4970821;28;20035;-61
2022/09/20 06:41:58;;;;;;;12.65;7.88;;;;;;;10.01;100.00;163181.53;4972053;28;20037;-62
2022/09/20 06:44:24;;;;;;;13.90;7.28;;;;;;;10.07;100.00;163197.69;4970591;28;20050;-60
2022/09/20 06:46:53;;;;;;;19.50;6.20;;;;;;;10.10;100.00;163204.44;4993406;28;20021;-60
2022/09/20 06:49:18;;;;;;;;;;;;;;;10.11;100.00;163207.16;5010347;28;20092;-60
2022/09/20 06:51:44;;;;;;;21.33;8.00;;;;;;;10.12;100.00;163211.19;5000294;28;19910;-60
2022/09/20 06:54:18;;;;;;;9.63;6.82;;;;;;;10.22;100.00;163235.47;4990273;28;20038;-60
2022/09/20 06:56:45;;;;;;;16.38;8.75;;;;;;;10.28;100.00;163251.66;4991697;28;20560;-60
2022/09/20 06:59:11;;;;;;;17.23;6.90;;;;;;;10.43;100.00;163292.22;4990122;28;20045;-60
2022/09/20 07:01:37;;;;;;;14.73;7.97;;;;;;;10.62;100.00;163342.16;4991935;28;20030;-60
2022/09/20 07:04:03;;;;;;;14.68;7.60;;;;;;;10.82;100.00;163392.09;4989645;28;20041;-60
2022/09/20 07:06:29;;;;;;;22.27;7.40;;;;;;;11.05;100.00;163454.22;4991915;28;20101;-60
2022/09/20 07:08:54;;;;;;;14.52;6.80;;;;;;;11.24;100.00;163502.81;4990355;28;20410;-60
2022/09/20 07:11:21;;;;;;;10.63;7.85;;;;;;;11.33;100.00;163527.13;4991234;28;20023;-60
2022/09/20 07:13:51;;;;;;;15.88;5.95;;;;;;;11.48;100.00;163564.94;4990288;28;20038;-60
2022/09/20 07:16:17;;;;;;;13.10;8.00;;;;;;;11.58;100.00;163591.91;4991271;28;20535;-60
2022/09/20 07:18:42;;;;;;;11.65;5.88;;;;;;;11.65;100.00;163610.88;4990000;28;20037;-60
2022/09/20 07:21:10;;;;;;;13.48;5.30;;;;;;;11.66;100.00;163613.53;4991072;28;20022;-60
2022/09/20 07:23:35;;;;;;;8.25;4.30;;;;;;;11.71;100.00;163625.69;4990446;28;20493;-60
2022/09/20 07:26:00;;;;;;;9.88;4.00;;;;;;;11.72;100.00;163629.78;4990867;28;20010;-60
2022/09/20 07:28:31;;;;;;;11.07;3.83;;;;;;;11.88;100.00;163671.63;4990027;28;20489;-59
2022/09/20 07:30:56;;;;;;;10.85;4.30;;;;;;;11.97;100.00;163693.31;4991338;28;20411;-60
2022/09/20 07:33:23;;;;;;;11.40;5.15;;;;;;;12.05;100.00;163714.94;4991205;28;20038;-60
2022/09/20 07:35:53;;;;;;;13.27;6.30;;;;;;;12.08;100.00;163721.69;4990023;28;20078;-60
2022/09/20 07:38:18;;;;;;;14.13;4.93;;;;;;;12.27;100.00;163771.66;4991717;28;20022;-60
2022/09/20 07:40:45;;;;;;;9.68;4.53;;;;;;;12.40;100.00;163806.78;4989402;28;20100;-60
2022/09/20 07:43:11;;;;;;;6.32;3.75;;;;;;;12.42;100.00;163810.84;4991496;28;20102;-60
2022/09/20 07:45:38;;;;;;;9.27;4.35;;;;;;;12.47;100.00;163824.38;4990125;28;20034;-59
2022/09/20 07:48:06;;;;;;;12.98;4.75;;;;;;;12.58;100.00;163854.09;4994708;28;20374;-59
2022/09/20 07:50:32;;;;;;;9.65;4.25;;;;;;;12.71;100.00;163887.88;4991283;28;20031;-60
2022/09/20 07:52:57;;;;;;;10.15;4.80;;;;;;;12.84;100.00;163921.69;4991252;28;20026;-60
2022/09/20 07:55:23;;;;;;;10.13;3.50;;;;;;;13.19;100.00;164013.59;4989269;28;20508;-60
2022/09/20 07:57:50;;;;;;;12.10;3.90;;;;;;;13.38;100.00;90241.75;4991264;28;20049;-60
2022/09/20 08:00:16;;;;;;;14.43;3.67;;;;;;;13.42;100.00;164073.13;4989418;28;20048;-60
2022/09/20 08:02:41;;;;;;;7.63;3.47;;;;;;;13.41;100.00;164071.75;4990907;28;20030;-60
2022/09/20 08:05:07;;;;;;;11.65;4.97;;;;;;;13.56;100.00;164109.63;4989595;28;20046;-60
2022/09/20 08:07:32;;;;;;;11.05;3.63;;;;;;;13.95;100.00;164213.78;4993753;28;20080;-60
2022/09/20 08:09:58;;;;;;;10.85;5.72;;;;;;;14.34;100.00;164313.84;4993059;28;20047;-60
2022/09/20 08:12:24;;;;;;;9.07;4.38;;;;;;;14.67;100.00;164401.84;4995207;28;20084;-60
2022/09/20 08:14:50;;;;;;;11.02;3.60;;;;;;;14.95;100.00;164473.56;4993391;28;20486;-60
2022/09/20 08:17:15;;;;;;;8.50;3.17;;;;;;;14.95;100.00;164473.56;4994153;28;20027;-60
2022/09/20 08:19:41;;;;;;;4.30;3.10;;;;;;;14.84;100.00;164446.53;4993342;28;20568;-60
2022/09/20 08:22:09;;;;;;;6.13;3.00;;;;;;;14.57;100.00;164376.09;4994608;28;20026;-60
2022/09/20 08:24:35;;;;;;;4.07;1.63;;;;;;;14.41;100.00;164332.78;4992880;28;20538;-60
2022/09/20 08:27:00;;;;;;;17.17;4.93;;;;;;;14.30;100.00;164303.06;4994477;28;20027;-60
2022/09/20 08:29:25;;;;;;;13.13;3.55;;;;;;;14.16;100.00;164266.50;4993068;28;20065;-60
2022/09/20 08:31:51;;;;;;;7.53;3.15;;;;;;;14.03;100.00;164232.72;4994454;28;20046;-59
2022/09/20 08:34:17;;;;;;;6.28;4.05;;;;;;;14.05;100.00;164238.09;4992472;28;20042;-59
2022/09/20 08:36:45;;;;;;;6.63;3.00;;;;;;;14.20;100.00;164278.69;4994445;28;20101;-59
2022/09/20 08:39:12;;;;;;;3.85;2.55;;;;;;;14.30;100.00;164303.06;4975517;28;20133;-59
2022/09/20 08:41:44;;;;;;;2.85;2.30;;;;;;;14.30;100.00;164303.06;4993931;28;20474;-58
2022/09/20 08:44:26;;;;;;;10.82;4.25;;;;;;;14.44;100.00;164340.94;4992681;28;20512;-59
2022/09/20 08:47:12;;;;;;;8.82;3.47;;;;;;;14.30;100.00;164304.38;4993996;28;20034;-58
2022/09/20 08:49:39;;;;;;;6.70;2.30;;;;;;;14.34;100.00;164315.22;4993022;28;20101;-59
2022/09/20 08:52:05;;;;;;;7.75;1.80;;;;;;;14.37;100.00;164322.00;4991813;28;20026;-59
2022/09/20 08:54:34;;;;;;;11.13;3.80;;;;;;;14.36;100.00;164320.66;5010599;28;20069;-59
2022/09/20 08:57:09;;;;;;;7.80;3.05;;;;;;;14.35;100.00;164316.56;5013213;28;20494;-59
2022/09/20 08:59:34;;;;;;;6.88;2.72;;;;;;;14.41;100.00;164334.19;5011989;28;20525;-58
2022/09/20 09:02:00;;;;;;;6.25;2.50;;;;;;;14.72;100.00;164414.03;5012833;28;20028;-59
2022/09/20 09:04:34;;;;;;;9.30;1.92;;;;;;;15.00;100.00;164487.16;5012220;28;20523;-59
2022/09/20 09:07:01;;;;;;;3.50;1.48;;;;;;;15.28;100.00;164560.22;5013184;28;20108;-59
2022/09/20 09:09:28;;;;;;;6.40;2.95;;;;;;;15.55;100.00;164631.97;5011894;28;20045;-59
2022/09/20 09:11:55;;;;;;;5.32;2.63;;;;;;;15.92;100.00;164728.13;5013470;28;20025;-59
2022/09/20 09:17:13;;;;;;;5.72;2.03;;;;;;;15.68;100.00;164665.78;5012520;28;20037;-58
2022/09/20 09:19:44;;;;;;;5.10;1.63;;;;;;;15.54;100.00;164630.59;5011272;28;20045;-58
2022/09/20 09:22:10;;;;;;;6.43;3.00;;;;;;;15.68;100.00;164667.16;5012765;28;20109;-58
2022/09/20 09:24:36;;;;;;;3.47;1.63;;;;;;;15.70;100.00;164671.22;5011509;28;20048;-59
2022/09/20 09:27:19;;;;;;;12.25;3.13;;;;;;;15.65;100.00;164657.69;5013034;28;20025;-58
2022/09/20 09:29:53;;;;;;;5.93;2.15;;;;;;;15.59;100.00;164642.78;5011520;28;20042;-59
2022/09/20 09:32:28;;;;;;;6.80;2.28;;;;;;;15.41;100.00;164595.41;5012580;28;20502;-59
2022/09/20 09:34:53;;;;;;;5.60;1.88;;;;;;;15.59;100.00;164641.47;5011409;28;20045;-58
2022/09/20 09:37:27;;;;;;;4.95;2.08;;;;;;;15.88;100.00;164717.31;5012896;28;20428;-59
2022/09/20 09:40:16;;;;;;;9.50;2.90;;;;;;;15.99;100.00;164747.09;5011174;28;20046;-58
2022/09/20 09:43:07;;;;;;;;;;;;;;;15.80;100.00;164698.31;5013521;28;20030;-59
2022/09/20 09:45:37;;;;;;;5.93;2.15;;;;;;;15.83;100.00;164706.47;4998269;28;19929;-58
2022/09/20 09:48:17;;;;;;;4.03;1.70;;;;;;;16.04;100.00;164760.66;5010570;28;20461;-59
2022/09/20 09:50:43;;;;;;;8.43;2.20;;;;;;;16.14;100.00;164787.72;5010800;28;20516;-59
2022/09/20 09:53:15;;;;;;;4.82;1.50;;;;;;;16.28;100.00;164822.91;4992613;28;20030;-59
2022/09/20 09:55:54;;;;;;;8.05;1.63;;;;;;;16.48;100.00;164877.13;4991185;28;20219;-59
2022/09/20 09:58:37;;;;;;;4.13;2.28;;;;;;;16.68;100.00;164927.25;4992430;28;20033;-58
2022/09/20 10:01:09;;;;;;;3.20;1.77;;;;;;;16.72;100.00;164939.41;4976850;28;20054;-59
2022/09/20 10:04:24;;;;;;;9.82;2.17;;;;;;;16.77;100.00;164951.59;4974542;28;20073;-59
2022/09/20 10:06:57;;;;;;;2.17;1.65;;;;;;;16.95;100.00;164999.06;4982393;28;20037;-59
2022/09/20 10:09:32;;;;;;;3.97;1.50;;;;;;;17.04;100.00;165023.47;4985342;28;20038;-58
2022/09/20 10:12:19;;;;;;;3.72;2.60;;;;;;;16.98;100.00;165007.22;4971128;28;20479;-59
2022/09/20 10:15:13;;;;;;;3.70;1.70;;;;;;;16.97;100.00;165004.50;4982449;28;20046;-59
2022/09/20 10:18:07;;;;;;;6.72;1.70;;;;;;;16.92;100.00;164990.94;4992500;28;20053;-59
2022/09/20 10:20:57;;;;;;;4.47;1.48;;;;;;;17.08;100.00;165034.34;4989785;28;20046;-59
2022/09/20 10:23:40;;;;;;;2.97;1.25;;;;;;;17.12;100.00;165045.16;4991405;28;20398;-58
2022/09/20 10:26:20;;;;;;;4.72;1.33;;;;;;;17.32;100.00;165096.63;4971072;28;20118;-58
2022/09/20 10:28:54;;;;;;;8.48;2.67;;;;;;;17.55;100.00;165156.28;4968218;28;20542;-59
2022/09/20 10:31:34;;;;;;;8.27;2.10;;;;;;;17.81;100.00;165224.06;4971694;28;20046;-59
2022/09/20 10:34:10;;;;;;;8.93;2.22;;;;;;;17.93;100.00;165256.59;4970898;28;20059;-58
2022/09/20 10:36:48;;;;;;;5.80;1.83;;;;;;;18.14;100.00;165310.84;4951608;28;20031;-59
2022/09/20 10:39:47;;;;;;;7.22;1.92;;;;;;;18.16;100.00;165316.28;4971696;28;20049;-59
2022/09/20 10:45:34;;;;;;;2.33;1.17;;;;;;;18.05;100.00;165289.22;4989470;28;20057;-60
2022/09/20 10:48:08;;;;;;;2.85;1.40;;;;;;;18.39;100.00;165377.34;4991836;28;20026;-60
2022/09/20 10:50:41;;;;;;;2.63;1.08;;;;;;;18.35;100.00;165367.84;4990237;28;20046;-60
2022/09/20 10:53:26;;;;;;;5.88;1.25;;;;;;;18.11;100.00;165302.75;4991262;28;20022;-59
2022/09/20 10:56:09;;;;;;;5.95;2.90;;;;;;;17.64;100.00;165180.69;4968680;28;20104;-59
2022/09/20 10:58:51;;;;;;;7.25;2.60;;;;;;;17.14;100.00;165049.22;4973529;28;20035;-60
2022/09/20 11:01:53;;;;;;;3.88;1.40;;;;;;;16.63;100.00;164916.41;4991056;28;20046;-60
2022/09/20 11:04:45;;;;;;;12.35;3.35;;;;;;;16.02;100.00;164755.22;4989593;28;20057;-59
2022/09/20 11:07:18;;;;;;;4.15;1.92;;;;;;;15.67;100.00;164663.13;4991394;28;20559;-60
2022/09/20 11:10:01;;;;;;;5.35;1.45;;;;;;;15.31;100.00;164569.69;4989860;28;20100;-60
2022/09/20 11:12:38;;;;;;;4.97;1.45;;;;;;;15.06;100.00;164503.38;4991582;28;20129;-60
2022/09/20 11:15:03;;;;;;;2.42;1.30;;;;;;;14.79;100.00;164432.97;4989465;28;20129;-60
2022/09/20 11:17:32;;;;;;;5.00;3.05;;;;;;;14.22;100.00;164284.13;4991509;28;20109;-60
2022/09/20 11:20:15;;;;;;;7.55;2.28;;;;;;;13.98;100.00;164219.16;4989652;28;20045;-60
2022/09/20 11:22:55;;;;;;;13.95;2.30;;;;;;;13.53;100.00;164102.88;4991197;28;20434;-61
2022/09/20 11:25:33;;;;;;;7.53;1.90;;;;;;;13.28;100.00;164036.56;4990072;28;20046;-60
2022/09/20 11:28:10;;;;;;;13.87;2.57;;;;;;;13.19;100.00;164013.59;4991112;28;20022;-60
2022/09/20 11:30:44;;;;;;;8.38;1.77;;;;;;;13.26;100.00;164032.53;4988679;28;20058;-60
2022/09/20 11:33:20;;;;;;;9.20;1.50;;;;;;;13.25;100.00;164028.47;4990733;28;20114;-59
2022/09/20 11:35:50;;;;;;;6.30;2.90;;;;;;;13.27;100.00;164035.22;4986428;28;20119;-59
2022/09/20 11:38:39;;;;;;;5.32;1.55;;;;;;;13.43;100.00;164075.84;5007796;28;20034;-60
2022/09/20 11:41:14;;;;;;;6.60;1.80;;;;;;;13.57;100.00;164113.72;5007579;28;20045;-59
2022/09/20 11:43:43;;;;;;;9.82;1.95;;;;;;;13.72;100.00;164152.91;4993599;28;20025;-59
2022/09/20 11:46:12;;;;;;;7.78;1.80;;;;;;;13.76;100.00;164162.38;4994299;28;20470;-59
2022/09/20 11:48:57;;;;;;;16.30;2.85;;;;;;;13.84;100.00;164184.00;4993493;28;20022;-59
2022/09/20 11:51:42;;;;;;;11.05;2.05;;;;;;;14.07;100.00;164243.53;4994726;28;20161;-59
2022/09/20 11:54:43;;;;;;;4.68;1.33;;;;;;;14.31;100.00;164305.75;4988689;28;20402;-59
2022/09/20 11:57:15;;;;;;;8.00;2.15;;;;;;;14.55;100.00;164370.72;4994468;28;20032;-59
2022/09/20 11:59:49;;;;;;;5.18;1.33;;;;;;;14.85;100.00;164449.25;4993166;28;20070;-59
2022/09/20 12:02:32;;;;;;;9.63;3.05;;;;;;;14.98;100.00;164481.72;4994633;28;20081;-59
2022/09/20 12:05:00;;;;;;;4.05;1.95;;;;;;;15.12;100.00;164518.22;4993015;28;20038;-59
2022/09/20 12:07:33;;;;;;;9.32;3.10;;;;;;;15.49;100.00;164615.69;4994599;28;20026;-59
2022/09/20 12:10:03;;;;;;;7.32;2.72;;;;;;;15.57;100.00;164636.03;4993098;28;20042;-59
2022/09/20 12:12:38;;;;;;;4.93;2.10;;;;;;;15.69;100.00;164668.50;4994409;28;20081;-60
2022/09/20 12:15:20;;;;;;;14.70;2.85;;;;;;;15.96;100.00;164739.00;4992402;28;20077;-59